Time;durP1;ratioP1;P1;durP2;ratioP2;P2;SDS_P1;SDS_P2;PMS_P1;PMS_P2;Temp;Humidity;BMP_temperature;BMP_pressure;BME280_temperature;BME280_humidity;BME280_pressure;Samples;Min_cycle;Max_cycle;Signal;HPM_P1;HPM_P2
2021/04/30 00:00:35;;;;;;;1.58;1.45;;;;;;;;;;5115877;28;20233;-47
2021/04/30 00:03:01;;;;;;;2.47;1.70;;;;;;;;;;5116180;28;20257;-47
2021/04/30 00:05:29;;;;;;;2.50;1.50;;;;;;;;;;5115773;28;20185;-47
2021/04/30 00:07:55;;;;;;;1.95;1.40;;;;;;;;;;5114114;28;20211;-47
2021/04/30 00:10:22;;;;;;;1.80;1.20;;;;;;;;;;5116327;28;20236;-47
2021/04/30 00:12:48;;;;;;;2.10;1.30;;;;;;;;;;5115955;28;20488;-47
2021/04/30 00:15:14;;;;;;;1.60;1.38;;;;;;;;;;5115335;28;20230;-47
2021/04/30 00:17:40;;;;;;;1.80;1.30;;;;;;;;;;5116370;28;20493;-47
2021/04/30 00:20:07;;;;;;;3.25;1.67;;;;;;;;;;5115721;28;20203;-47
2021/04/30 00:22:33;;;;;;;1.77;1.52;;;;;;;;;;5114097;28;20169;-47
2021/04/30 00:24:59;;;;;;;1.80;1.40;;;;;;;;;;5116245;28;20453;-47
2021/04/30 00:27:25;;;;;;;2.15;1.38;;;;;;;;;;5116142;28;20560;-47
2021/04/30 00:29:51;;;;;;;1.42;1.23;;;;;;;;;;5115992;28;20173;-47
2021/04/30 00:32:17;;;;;;;1.58;1.48;;;;;;;;;;5097139;28;20181;-47
2021/04/30 00:34:43;;;;;;;1.38;1.27;;;;;;;;;;5115660;28;20201;-47
2021/04/30 00:37:09;;;;;;;1.60;1.45;;;;;;;;;;5115348;28;20596;-47
2021/04/30 00:39:36;;;;;;;1.50;1.30;;;;;;;;;;5114423;28;20451;-47
2021/04/30 00:42:02;;;;;;;2.28;1.30;;;;;;;;;;5115206;28;20179;-47
2021/04/30 00:44:29;;;;;;;1.65;1.55;;;;;;;;;;5116127;28;20172;-47
2021/04/30 00:46:55;;;;;;;1.40;1.27;;;;;;;;;;5115719;28;20210;-47
2021/04/30 00:49:21;;;;;;;1.85;1.45;;;;;;;;;;5115084;28;20185;-47
2021/04/30 00:51:47;;;;;;;1.50;1.30;;;;;;;;;;5114720;28;20218;-47
2021/04/30 00:54:13;;;;;;;1.08;1.00;;;;;;;;;;5115520;28;20502;-47
2021/04/30 00:56:39;;;;;;;1.20;1.10;;;;;;;;;;5115338;28;20257;-47
2021/04/30 00:59:05;;;;;;;1.63;1.45;;;;;;;;;;5115331;28;20209;-47
2021/04/30 01:01:31;;;;;;;1.63;1.25;;;;;;;;;;5116173;28;20188;-47
2021/04/30 01:03:57;;;;;;;1.30;1.20;;;;;;;;;;5117710;28;20188;-47
2021/04/30 01:06:23;;;;;;;1.30;1.13;;;;;;;;;;5117746;28;20165;-47
2021/04/30 01:08:49;;;;;;;1.50;1.20;;;;;;;;;;5117789;28;20573;-47
2021/04/30 01:11:16;;;;;;;1.65;1.20;;;;;;;;;;5117512;28;20161;-47
2021/04/30 01:16:45;;;;;;;2.67;1.40;;;;;;;;;;5117441;28;20152;-47
2021/04/30 01:19:19;;;;;;;1.20;1.00;;;;;;;;;;5117696;28;20171;-47
2021/04/30 01:21:45;;;;;;;1.73;1.10;;;;;;;;;;5117348;28;20191;-47
2021/04/30 01:24:11;;;;;;;2.03;1.20;;;;;;;;;;5117645;28;20494;-47
2021/04/30 01:26:37;;;;;;;1.52;1.17;;;;;;;;;;5117686;28;20165;-47
2021/04/30 01:29:03;;;;;;;1.20;1.10;;;;;;;;;;5117372;28;20261;-47
2021/04/30 01:31:35;;;;;;;1.35;1.25;;;;;;;;;;5117215;28;20165;-47
2021/04/30 01:34:01;;;;;;;1.20;1.08;;;;;;;;;;5117604;28;20168;-47
2021/04/30 01:36:27;;;;;;;1.35;0.90;;;;;;;;;;5117443;28;20244;-47
2021/04/30 01:38:53;;;;;;;1.83;1.10;;;;;;;;;;5117482;28;20222;-47
2021/04/30 01:41:21;;;;;;;1.20;1.10;;;;;;;;;;5117219;28;20161;-47
2021/04/30 01:43:47;;;;;;;1.05;1.00;;;;;;;;;;5117174;28;20240;-47
2021/04/30 01:46:13;;;;;;;0.90;0.90;;;;;;;;;;5117324;28;20253;-47
2021/04/30 01:48:39;;;;;;;1.77;1.23;;;;;;;;;;5117361;28;20467;-47
2021/04/30 01:51:05;;;;;;;1.27;0.98;;;;;;;;;;5099360;28;20172;-47
2021/04/30 01:56:34;;;;;;;1.45;1.00;;;;;;;;;;5117592;28;20156;-47
2021/04/30 01:59:00;;;;;;;0.95;0.95;;;;;;;;;;5117275;28;20165;-47
2021/04/30 02:01:26;;;;;;;1.60;1.15;;;;;;;;;;5115101;28;20568;-47
2021/04/30 02:03:58;;;;;;;1.17;1.00;;;;;;;;;;5114043;28;20217;-50
2021/04/30 02:06:24;;;;;;;1.10;1.00;;;;;;;;;;5114487;28;20551;-47
2021/04/30 02:08:51;;;;;;;1.10;1.00;;;;;;;;;;5106392;28;20247;-47
2021/04/30 02:11:17;;;;;;;1.35;1.08;;;;;;;;;;5103284;28;20173;-47
2021/04/30 02:13:43;;;;;;;1.10;0.98;;;;;;;;;;5113180;28;20177;-47
2021/04/30 02:16:09;;;;;;;0.98;0.80;;;;;;;;;;5109121;28;20807;-47
2021/04/30 02:18:35;;;;;;;1.30;1.00;;;;;;;;;;5114357;28;20286;-47
2021/04/30 02:21:01;;;;;;;2.05;1.17;;;;;;;;;;5113899;28;20196;-47
2021/04/30 02:23:27;;;;;;;0.95;0.93;;;;;;;;;;5114235;28;20208;-47
2021/04/30 02:25:53;;;;;;;1.20;1.10;;;;;;;;;;5114287;28;20213;-47
2021/04/30 02:28:19;;;;;;;1.58;1.38;;;;;;;;;;5111358;28;20255;-47
2021/04/30 02:30:45;;;;;;;0.80;0.80;;;;;;;;;;5118238;28;20177;-47
2021/04/30 02:33:11;;;;;;;1.00;1.00;;;;;;;;;;5118072;28;20727;-47
2021/04/30 02:35:41;;;;;;;0.98;0.98;;;;;;;;;;5118224;28;20173;-47
2021/04/30 02:38:11;;;;;;;0.90;0.90;;;;;;;;;;5118240;28;20176;-47
2021/04/30 02:40:38;;;;;;;1.30;1.13;;;;;;;;;;5118036;28;20180;-47
2021/04/30 02:43:09;;;;;;;1.08;0.98;;;;;;;;;;5116595;28;20179;-47
2021/04/30 02:45:35;;;;;;;1.00;0.90;;;;;;;;;;5117928;28;20732;-47
2021/04/30 02:48:01;;;;;;;1.10;1.00;;;;;;;;;;5117919;28;20193;-47
2021/04/30 02:50:29;;;;;;;1.10;1.10;;;;;;;;;;5117332;28;20208;-47
2021/04/30 02:52:55;;;;;;;1.33;1.15;;;;;;;;;;5117690;28;20198;-47
2021/04/30 02:55:22;;;;;;;1.40;1.30;;;;;;;;;;5117580;28;20544;-47
2021/04/30 02:57:54;;;;;;;1.73;1.10;;;;;;;;;;5117898;28;20208;-47
2021/04/30 03:00:22;;;;;;;1.60;1.42;;;;;;;;;;5117858;28;20173;-47
2021/04/30 03:02:48;;;;;;;1.88;1.45;;;;;;;;;;5116821;28;20188;-47
2021/04/30 03:05:14;;;;;;;1.50;1.40;;;;;;;;;;5117563;28;20184;-47
2021/04/30 03:07:40;;;;;;;2.15;1.45;;;;;;;;;;5117790;28;20197;-47
2021/04/30 03:10:06;;;;;;;1.58;1.48;;;;;;;;;;5101425;28;20178;-47
2021/04/30 03:12:33;;;;;;;2.78;1.85;;;;;;;;;;5110090;28;20567;-47
2021/04/30 03:14:59;;;;;;;2.00;1.70;;;;;;;;;;5117757;28;20222;-47
2021/04/30 03:17:25;;;;;;;1.85;1.55;;;;;;;;;;5116623;28;20173;-47
2021/04/30 03:19:51;;;;;;;1.83;1.50;;;;;;;;;;5117162;28;20256;-47
2021/04/30 03:22:17;;;;;;;2.72;1.80;;;;;;;;;;5116290;28;20269;-47
2021/04/30 03:24:43;;;;;;;1.98;1.70;;;;;;;;;;5109546;28;20223;-47
2021/04/30 03:27:09;;;;;;;1.95;1.75;;;;;;;;;;5112210;28;20458;-47
2021/04/30 03:29:35;;;;;;;2.00;1.80;;;;;;;;;;5099602;28;20173;-47
2021/04/30 03:32:01;;;;;;;2.80;1.77;;;;;;;;;;5116535;28;20177;-47
2021/04/30 03:34:27;;;;;;;2.33;2.05;;;;;;;;;;5117254;28;20181;-47
2021/04/30 03:36:53;;;;;;;2.38;1.77;;;;;;;;;;5106118;28;20583;-47
2021/04/30 03:39:19;;;;;;;2.45;2.08;;;;;;;;;;5096197;28;20170;-47
2021/04/30 03:41:46;;;;;;;3.05;1.90;;;;;;;;;;5096340;28;20170;-47
2021/04/30 03:44:12;;;;;;;2.42;2.22;;;;;;;;;;5110259;28;20179;-47
2021/04/30 03:46:38;;;;;;;2.70;2.25;;;;;;;;;;5116762;28;20181;-47
2021/04/30 03:49:05;;;;;;;2.53;2.28;;;;;;;;;;5117002;28;20208;-47
2021/04/30 03:51:31;;;;;;;3.47;2.40;;;;;;;;;;5115841;28;20489;-47
2021/04/30 03:53:57;;;;;;;2.72;2.38;;;;;;;;;;5116871;28;20181;-47
2021/04/30 03:56:23;;;;;;;3.70;2.72;;;;;;;;;;5116957;28;20701;-47
2021/04/30 03:58:49;;;;;;;3.20;2.33;;;;;;;;;;5116833;28;20177;-47
2021/04/30 04:01:15;;;;;;;3.10;2.30;;;;;;;;;;5115613;28;20208;-46
2021/04/30 04:03:41;;;;;;;3.58;2.45;;;;;;;;;;5115399;28;20497;-47
2021/04/30 04:06:07;;;;;;;4.82;2.42;;;;;;;;;;5116404;28;20188;-47
2021/04/30 04:08:33;;;;;;;5.05;2.60;;;;;;;;;;5116351;28;20285;-47
2021/04/30 04:10:59;;;;;;;3.00;2.53;;;;;;;;;;5116219;28;20184;-47
2021/04/30 04:13:26;;;;;;;3.42;2.75;;;;;;;;;;5116283;28;20177;-47
2021/04/30 04:15:52;;;;;;;3.20;2.28;;;;;;;;;;5116161;28;20166;-47
2021/04/30 04:18:19;;;;;;;4.32;3.10;;;;;;;;;;5113001;28;20169;-47
2021/04/30 04:20:45;;;;;;;3.63;2.75;;;;;;;;;;5113450;28;20216;-47
2021/04/30 04:23:12;;;;;;;29.23;6.38;;;;;;;;;;5116100;28;20559;-47
2021/04/30 04:25:38;;;;;;;26.83;6.90;;;;;;;;;;5115932;28;20180;-47
2021/04/30 04:28:05;;;;;;;23.20;7.22;;;;;;;;;;5114897;28;20193;-47
2021/04/30 04:30:31;;;;;;;23.27;7.72;;;;;;;;;;5115232;28;20170;-47
2021/04/30 04:32:57;;;;;;;21.60;6.95;;;;;;;;;;5110811;28;20173;-47
2021/04/30 04:35:23;;;;;;;23.48;7.43;;;;;;;;;;5099787;28;20682;-47
2021/04/30 04:37:49;;;;;;;15.43;5.95;;;;;;;;;;5115852;28;20239;-47
2021/04/30 04:40:16;;;;;;;15.77;6.65;;;;;;;;;;5116269;28;20169;-47
2021/04/30 04:42:42;;;;;;;17.38;6.78;;;;;;;;;;5103925;28;20192;-47
2021/04/30 04:45:09;;;;;;;15.30;5.97;;;;;;;;;;5115183;28;20229;-47
2021/04/30 04:47:35;;;;;;;17.90;6.10;;;;;;;;;;5115319;28;20189;-47
2021/04/30 04:50:01;;;;;;;15.05;6.05;;;;;;;;;;5110029;28;20552;-47
2021/04/30 04:52:27;;;;;;;16.13;5.80;;;;;;;;;;5114468;28;20169;-47
2021/04/30 04:54:53;;;;;;;14.23;5.38;;;;;;;;;;5115876;28;20191;-47
2021/04/30 04:57:19;;;;;;;11.02;5.47;;;;;;;;;;5115557;28;20165;-47
2021/04/30 04:59:45;;;;;;;15.25;5.28;;;;;;;;;;5114222;28;20187;-47
2021/04/30 05:02:11;;;;;;;11.98;5.35;;;;;;;;;;5114848;28;20543;-47
2021/04/30 05:04:37;;;;;;;12.10;5.40;;;;;;;;;;5112759;28;20445;-47
2021/04/30 05:07:03;;;;;;;10.95;5.03;;;;;;;;;;5114716;28;20177;-47
2021/04/30 05:09:29;;;;;;;13.00;5.53;;;;;;;;;;5115209;28;20467;-47
2021/04/30 05:11:55;;;;;;;13.82;4.70;;;;;;;;;;5112743;28;20165;-47
2021/04/30 05:14:22;;;;;;;11.48;5.00;;;;;;;;;;5111021;28;20318;-47
2021/04/30 05:16:48;;;;;;;10.55;5.07;;;;;;;;;;5115585;28;20248;-47
2021/04/30 05:19:14;;;;;;;11.45;5.22;;;;;;;;;;5114953;28;20259;-47
2021/04/30 05:21:41;;;;;;;10.93;4.88;;;;;;;;;;5111478;28;20295;-47
2021/04/30 05:24:08;;;;;;;10.93;4.93;;;;;;;;;;5114975;28;20184;-47
2021/04/30 05:26:34;;;;;;;8.75;4.50;;;;;;;;;;5108923;28;20173;-47
2021/04/30 05:29:01;;;;;;;9.48;4.57;;;;;;;;;;5113800;28;20641;-47
2021/04/30 05:31:27;;;;;;;11.43;4.60;;;;;;;;;;5114024;28;20172;-47
2021/04/30 05:33:53;;;;;;;8.02;4.65;;;;;;;;;;5096939;28;20200;-47
2021/04/30 05:36:19;;;;;;;9.85;5.18;;;;;;;;;;5112708;28;20445;-47
2021/04/30 05:38:45;;;;;;;8.20;4.38;;;;;;;;;;5114748;28;20193;-47
2021/04/30 05:41:11;;;;;;;9.30;4.28;;;;;;;;;;5097825;28;20567;-47
2021/04/30 05:43:37;;;;;;;7.88;4.28;;;;;;;;;;5114707;28;20181;-47
2021/04/30 05:46:03;;;;;;;10.02;4.75;;;;;;;;;;5100625;28;20459;-47
2021/04/30 05:48:29;;;;;;;7.93;4.50;;;;;;;;;;5106190;28;20660;-47
2021/04/30 05:50:55;;;;;;;9.77;4.78;;;;;;;;;;5113831;28;20251;-47
2021/04/30 05:53:22;;;;;;;6.85;4.15;;;;;;;;;;5114023;28;20196;-47
2021/04/30 05:55:49;;;;;;;8.15;4.00;;;;;;;;;;5114647;28;20161;-47
2021/04/30 05:58:15;;;;;;;8.77;4.38;;;;;;;;;;5113177;28;20189;-47
2021/04/30 06:00:41;;;;;;;7.15;3.88;;;;;;;;;;5108068;28;20255;-47
2021/04/30 06:03:07;;;;;;;6.65;4.20;;;;;;;;;;5110692;28;20181;-47
2021/04/30 06:05:33;;;;;;;7.07;4.28;;;;;;;;;;5118560;28;20188;-47
2021/04/30 06:07:59;;;;;;;8.38;4.35;;;;;;;;;;5107816;28;20204;-47
2021/04/30 06:10:25;;;;;;;7.95;4.10;;;;;;;;;;5117247;28;20181;-47
2021/04/30 06:12:52;;;;;;;9.13;3.95;;;;;;;;;;5118133;28;20183;-47
2021/04/30 06:15:18;;;;;;;6.47;4.45;;;;;;;;;;5117808;28;20176;-47
2021/04/30 06:17:44;;;;;;;11.32;4.45;;;;;;;;;;5116541;28;20178;-47
2021/04/30 06:20:10;;;;;;;7.10;3.58;;;;;;;;;;5118382;28;20204;-47
2021/04/30 06:22:36;;;;;;;8.48;4.05;;;;;;;;;;5110150;28;20185;-47
2021/04/30 06:25:03;;;;;;;6.45;3.97;;;;;;;;;;5111250;28;20181;-47
2021/04/30 06:27:29;;;;;;;7.35;3.90;;;;;;;;;;5109354;28;20263;-47
2021/04/30 06:29:55;;;;;;;5.97;3.92;;;;;;;;;;5098106;28;20849;-47
2021/04/30 06:32:21;;;;;;;6.72;3.60;;;;;;;;;;5100280;28;20177;-47
2021/04/30 06:34:47;;;;;;;8.90;3.83;;;;;;;;;;5112514;28;20557;-47
2021/04/30 06:37:13;;;;;;;6.45;3.60;;;;;;;;;;5117082;28;20189;-47
2021/04/30 06:39:39;;;;;;;6.80;3.85;;;;;;;;;;5107889;28;20182;-47
2021/04/30 06:42:06;;;;;;;5.45;3.50;;;;;;;;;;5101481;28;20594;-47
2021/04/30 06:44:33;;;;;;;6.03;3.47;;;;;;;;;;5117794;28;20241;-47
2021/04/30 06:46:59;;;;;;;5.85;3.60;;;;;;;;;;5117267;28;20168;-47
2021/04/30 06:49:25;;;;;;;5.50;3.65;;;;;;;;;;5114829;28;20197;-47
2021/04/30 06:51:51;;;;;;;5.05;3.30;;;;;;;;;;5114560;28;20173;-47
2021/04/30 06:54:17;;;;;;;5.72;3.47;;;;;;;;;;5117708;28;20479;-47
2021/04/30 06:56:44;;;;;;;7.28;4.03;;;;;;;;;;5118169;28;20187;-47
2021/04/30 06:59:10;;;;;;;5.40;3.42;;;;;;;;;;5109053;28;20201;-47
2021/04/30 07:01:36;;;;;;;5.28;3.42;;;;;;;;;;5097111;28;20209;-47
2021/04/30 07:04:02;;;;;;;7.35;3.55;;;;;;;;;;5097706;28;20174;-47
2021/04/30 07:06:28;;;;;;;7.25;3.35;;;;;;;;;;5097572;28;20174;-47
2021/04/30 07:08:54;;;;;;;4.35;2.90;;;;;;;;;;5097147;28;20246;-47
2021/04/30 07:11:23;;;;;;;6.28;3.90;;;;;;;;;;5096862;28;20172;-47
2021/04/30 07:13:49;;;;;;;7.60;3.40;;;;;;;;;;5112967;28;20529;-47
2021/04/30 07:16:15;;;;;;;4.30;2.78;;;;;;;;;;5117842;28;20223;-47
2021/04/30 07:18:41;;;;;;;5.65;3.03;;;;;;;;;;5117594;28;20248;-47
2021/04/30 07:21:07;;;;;;;3.97;2.58;;;;;;;;;;5117011;28;20268;-47
2021/04/30 07:23:34;;;;;;;5.53;3.30;;;;;;;;;;5117377;28;20205;-47
2021/04/30 07:26:00;;;;;;;5.25;3.15;;;;;;;;;;5116995;28;20173;-47
2021/04/30 07:28:26;;;;;;;5.60;3.10;;;;;;;;;;5117500;28;20193;-47
2021/04/30 07:30:53;;;;;;;3.95;3.00;;;;;;;;;;5116981;28;20244;-47
2021/04/30 07:33:19;;;;;;;6.03;3.40;;;;;;;;;;5117488;28;20173;-47
2021/04/30 07:35:45;;;;;;;6.60;2.80;;;;;;;;;;5117221;28;20165;-47
2021/04/30 07:38:12;;;;;;;5.75;2.90;;;;;;;;;;5117258;28;20215;-47
2021/04/30 07:40:40;;;;;;;3.53;2.83;;;;;;;;;;5105113;28;20185;-47
2021/04/30 07:43:09;;;;;;;3.65;2.63;;;;;;;;;;5096943;28;20257;-47
2021/04/30 07:45:36;;;;;;;4.25;2.78;;;;;;;;;;5096891;28;20174;-47
2021/04/30 07:48:02;;;;;;;3.25;2.47;;;;;;;;;;5096700;28;20204;-47
2021/04/30 07:50:28;;;;;;;3.55;2.50;;;;;;;;;;5106735;28;20169;-47
2021/04/30 07:52:54;;;;;;;2.58;2.38;;;;;;;;;;5116937;28;20206;-47
2021/04/30 07:55:20;;;;;;;3.55;2.20;;;;;;;;;;5116353;28;20169;-47
2021/04/30 07:57:46;;;;;;;4.50;2.90;;;;;;;;;;5116681;28;20184;-47
2021/04/30 08:00:13;;;;;;;4.25;2.50;;;;;;;;;;5116198;28;20173;-47
2021/04/30 08:02:39;;;;;;;3.55;2.80;;;;;;;;;;5116305;28;20169;-47
2021/04/30 08:05:05;;;;;;;7.57;2.70;;;;;;;;;;5098691;28;20170;-47
2021/04/30 08:07:31;;;;;;;7.18;2.90;;;;;;;;;;5111457;28;20201;-47
2021/04/30 08:09:57;;;;;;;4.75;2.83;;;;;;;;;;5078689;28;20197;-47
2021/04/30 08:12:23;;;;;;;5.55;2.45;;;;;;;;;;5100576;28;20580;-47
2021/04/30 08:14:49;;;;;;;7.70;3.10;;;;;;;;;;5111655;28;20173;-47
2021/04/30 08:17:15;;;;;;;5.50;2.63;;;;;;;;;;5114776;28;20157;-47
2021/04/30 08:19:42;;;;;;;5.75;2.20;;;;;;;;;;5105153;28;20458;-47
2021/04/30 08:22:08;;;;;;;5.18;2.50;;;;;;;;;;5115870;28;20295;-47
2021/04/30 08:24:34;;;;;;;5.03;2.63;;;;;;;;;;5116225;28;20169;-47
2021/04/30 08:27:00;;;;;;;3.80;2.42;;;;;;;;;;5116392;28;20171;-47
2021/04/30 08:29:27;;;;;;;5.70;2.30;;;;;;;;;;5095988;28;20240;-47
2021/04/30 08:31:53;;;;;;;5.93;2.40;;;;;;;;;;5095351;28;20193;-47
2021/04/30 08:34:19;;;;;;;3.55;2.28;;;;;;;;;;5095431;28;20552;-47
2021/04/30 08:36:45;;;;;;;4.45;2.58;;;;;;;;;;5106028;28;20526;-47
2021/04/30 08:39:12;;;;;;;3.05;1.90;;;;;;;;;;5116093;28;20197;-47
2021/04/30 08:41:39;;;;;;;2.85;2.10;;;;;;;;;;5115638;28;20169;-47
2021/04/30 08:44:05;;;;;;;6.03;2.60;;;;;;;;;;5113847;28;20169;-47
2021/04/30 08:46:32;;;;;;;6.45;2.50;;;;;;;;;;5115775;28;20263;-47
2021/04/30 08:49:01;;;;;;;3.70;2.47;;;;;;;;;;5115474;28;20458;-48
2021/04/30 08:51:27;;;;;;;5.68;2.55;;;;;;;;;;5114927;28;20205;-47
2021/04/30 08:53:53;;;;;;;5.93;2.65;;;;;;;;;;5097967;28;20215;-47
2021/04/30 08:56:19;;;;;;;7.90;2.85;;;;;;;;;;5097935;28;20442;-47
2021/04/30 08:58:46;;;;;;;15.63;3.10;;;;;;;;;;5114360;28;20706;-47
2021/04/30 09:01:12;;;;;;;10.98;3.30;;;;;;;;;;5102049;28;20189;-47
2021/04/30 09:03:38;;;;;;;11.05;3.55;;;;;;;;;;5108710;28;20195;-47
2021/04/30 09:06:06;;;;;;;9.73;4.03;;;;;;;;;;5093958;28;20170;-47
2021/04/30 09:08:44;;;;;;;8.60;3.65;;;;;;;;;;5113246;28;20449;-47
2021/04/30 09:11:10;;;;;;;20.17;5.72;;;;;;;;;;5114868;28;20172;-47
2021/04/30 09:13:40;;;;;;;28.83;9.27;;;;;;;;;;5114529;28;20169;-47
2021/04/30 09:16:07;;;;;;;38.10;10.35;;;;;;;;;;5112537;28;20169;-47
2021/04/30 09:18:33;;;;;;;40.10;10.82;;;;;;;;;;5097235;28;20177;-47
2021/04/30 09:21:06;;;;;;;47.30;12.02;;;;;;;;;;5097084;28;20653;-47
2021/04/30 09:23:35;;;;;;;39.67;10.50;;;;;;;;;;5096445;28;20181;-47
2021/04/30 09:26:21;;;;;;;35.08;10.50;;;;;;;;;;5096086;28;20559;-47
2021/04/30 09:29:00;;;;;;;38.72;10.85;;;;;;;;;;5105280;28;20262;-47
2021/04/30 09:31:36;;;;;;;71.60;18.92;;;;;;;;;;5111160;28;20467;-47
2021/04/30 09:34:25;;;;;;;67.63;16.17;;;;;;;;;;5113674;28;20185;-47
2021/04/30 09:37:04;;;;;;;102.32;23.73;;;;;;;;;;5114266;28;20185;-47
2021/04/30 09:39:31;;;;;;;98.50;23.80;;;;;;;;;;5114858;28;20195;-47
2021/04/30 09:42:06;;;;;;;104.40;26.75;;;;;;;;;;5114363;28;20180;-47
2021/04/30 09:44:36;;;;;;;94.50;23.58;;;;;;;;;;5114521;28;20211;-47
2021/04/30 09:47:11;;;;;;;86.78;24.60;;;;;;;;;;5114383;28;20188;-47
2021/04/30 09:49:37;;;;;;;77.22;22.90;;;;;;;;;;5114746;28;20196;-47
2021/04/30 09:52:04;;;;;;;94.60;22.83;;;;;;;;;;5114147;28;20172;-48
2021/04/30 09:54:31;;;;;;;79.93;21.98;;;;;;;;;;5094691;28;20192;-47
2021/04/30 09:57:07;;;;;;;82.50;21.98;;;;;;;;;;5094656;28;20162;-47
2021/04/30 09:59:34;;;;;;;89.45;22.42;;;;;;;;;;5113186;28;20177;-47
2021/04/30 10:02:09;;;;;;;70.05;21.23;;;;;;;;;;5113704;28;20599;-47
2021/04/30 10:04:36;;;;;;;67.63;20.40;;;;;;;;;;5110538;28;20174;-47
2021/04/30 10:07:03;;;;;;;62.83;19.35;;;;;;;;;;5094606;28;20188;-47
2021/04/30 10:09:30;;;;;;;65.78;19.65;;;;;;;;;;5094374;28;20239;-47
2021/04/30 10:11:56;;;;;;;61.33;18.50;;;;;;;;;;5093927;28;20597;-47
2021/04/30 10:14:23;;;;;;;62.55;18.90;;;;;;;;;;5112177;28;20181;-47
2021/04/30 10:16:49;;;;;;;57.05;18.45;;;;;;;;;;5114465;28;20266;-47
2021/04/30 10:19:15;;;;;;;54.42;18.35;;;;;;;;;;5114661;28;20193;-47
2021/04/30 10:21:41;;;;;;;53.15;17.83;;;;;;;;;;5089086;28;20243;-47
2021/04/30 10:24:12;;;;;;;50.50;17.42;;;;;;;;;;5113720;28;20184;-47
2021/04/30 10:26:38;;;;;;;51.15;17.00;;;;;;;;;;5114132;28;20185;-47
2021/04/30 10:29:07;;;;;;;56.00;18.15;;;;;;;;;;5114451;28;20209;-47
2021/04/30 10:31:35;;;;;;;43.50;16.20;;;;;;;;;;5113837;28;20273;-47
2021/04/30 10:34:03;;;;;;;48.90;17.58;;;;;;;;;;5114427;28;20173;-47
2021/04/30 10:36:49;;;;;;;51.85;16.25;;;;;;;;;;5096477;28;20542;-47
2021/04/30 10:39:28;;;;;;;43.90;15.27;;;;;;;;;;5093635;28;20592;-47
2021/04/30 10:41:55;;;;;;;44.45;15.35;;;;;;;;;;5094053;28;20166;-47
2021/04/30 10:44:23;;;;;;;49.80;15.98;;;;;;;;;;5111337;28;20181;-47
2021/04/30 10:46:51;;;;;;;45.38;14.82;;;;;;;;;;5114408;28;20180;-47
2021/04/30 10:49:19;;;;;;;42.50;14.77;;;;;;;;;;5116463;28;20197;-47
2021/04/30 10:52:22;;;;;;;40.60;15.32;;;;;;;;;;5097186;28;20166;-47
2021/04/30 10:55:00;;;;;;;39.75;14.40;;;;;;;;;;5100416;28;20185;-47
2021/04/30 10:57:26;;;;;;;36.80;14.48;;;;;;;;;;5118138;28;20552;-47
2021/04/30 10:59:52;;;;;;;40.58;14.57;;;;;;;;;;5117939;28;20612;-47
2021/04/30 11:02:21;;;;;;;33.33;13.75;;;;;;;;;;5116708;28;20552;-47
2021/04/30 11:05:05;;;;;;;32.35;13.85;;;;;;;;;;5117984;28;20568;-47
2021/04/30 11:07:34;;;;;;;34.10;13.95;;;;;;;;;;5116543;28;20200;-47
2021/04/30 11:10:01;;;;;;;40.00;13.82;;;;;;;;;;5108546;28;20178;-47
2021/04/30 11:12:28;;;;;;;34.47;12.95;;;;;;;;;;5103798;28;20218;-47
2021/04/30 11:15:02;;;;;;;31.35;13.65;;;;;;;;;;5117526;28;20185;-47
2021/04/30 11:17:48;;;;;;;27.48;12.23;;;;;;;;;;5117404;28;20173;-47
2021/04/30 11:20:20;;;;;;;27.13;11.52;;;;;;;;;;5117405;28;20208;-47
2021/04/30 11:23:04;;;;;;;26.77;11.82;;;;;;;;;;5117194;28;20169;-47
2021/04/30 11:25:30;;;;;;;27.77;10.73;;;;;;;;;;5115182;28;20185;-47
2021/04/30 11:27:56;;;;;;;26.27;11.05;;;;;;;;;;5097012;28;20201;-47
2021/04/30 11:30:23;;;;;;;30.10;11.93;;;;;;;;;;5106404;28;20182;-47
2021/04/30 11:32:50;;;;;;;29.30;11.15;;;;;;;;;;5116546;28;20162;-47
2021/04/30 11:35:16;;;;;;;26.98;11.07;;;;;;;;;;5116836;28;20224;-47
2021/04/30 11:37:43;;;;;;;29.45;11.02;;;;;;;;;;5117029;28;20193;-47
2021/04/30 11:40:12;;;;;;;27.75;11.40;;;;;;;;;;5117253;28;20174;-47
2021/04/30 11:42:39;;;;;;;26.75;10.50;;;;;;;;;;5114948;28;20169;-47
2021/04/30 11:45:05;;;;;;;25.20;10.50;;;;;;;;;;5117247;28;20252;-47
2021/04/30 11:47:32;;;;;;;25.67;10.77;;;;;;;;;;5115576;28;20192;-47
2021/04/30 11:49:59;;;;;;;22.98;9.75;;;;;;;;;;5116745;28;20188;-47
2021/04/30 11:52:37;;;;;;;22.10;10.00;;;;;;;;;;5116679;28;20162;-47
2021/04/30 11:55:04;;;;;;;23.20;9.90;;;;;;;;;;5117264;28;20165;-47
2021/04/30 11:57:30;;;;;;;23.55;9.70;;;;;;;;;;5116824;28;20455;-47
2021/04/30 11:59:57;;;;;;;22.23;10.00;;;;;;;;;;5107266;28;20233;-47
2021/04/30 12:02:27;;;;;;;20.88;9.40;;;;;;;;;;5115825;28;20169;-47
2021/04/30 12:04:54;;;;;;;24.95;10.18;;;;;;;;;;5116765;28;20181;-47
2021/04/30 12:07:24;;;;;;;24.70;9.25;;;;;;;;;;5116713;28;20193;-47
2021/04/30 12:09:51;;;;;;;21.63;9.85;;;;;;;;;;5116802;28;20180;-47
2021/04/30 12:12:17;;;;;;;21.52;9.63;;;;;;;;;;5116083;28;20192;-47
2021/04/30 12:14:44;;;;;;;18.83;8.63;;;;;;;;;;5111166;28;20174;-47
2021/04/30 12:17:30;;;;;;;20.77;8.35;;;;;;;;;;5104835;28;20169;-47
2021/04/30 12:19:58;;;;;;;20.30;8.98;;;;;;;;;;5116268;28;20177;-47
2021/04/30 12:22:24;;;;;;;23.33;8.40;;;;;;;;;;5116020;28;20181;-47
2021/04/30 12:24:50;;;;;;;31.38;9.23;;;;;;;;;;5116344;28;20185;-47
2021/04/30 12:27:29;;;;;;;26.88;8.65;;;;;;;;;;5116300;28;20177;-47
2021/04/30 12:29:56;;;;;;;32.83;9.88;;;;;;;;;;5116442;28;20180;-47
2021/04/30 12:32:26;;;;;;;34.10;10.30;;;;;;;;;;5107358;28;20209;-47
2021/04/30 12:34:52;;;;;;;43.58;10.98;;;;;;;;;;5116416;28;20176;-47
2021/04/30 12:37:18;;;;;;;36.95;12.48;;;;;;;;;;5116254;28;20173;-47
2021/04/30 12:39:44;;;;;;;46.85;14.52;;;;;;;;;;5115927;28;20177;-47
2021/04/30 12:42:10;;;;;;;46.17;15.57;;;;;;;;;;5115352;28;20173;-47
2021/04/30 12:44:36;;;;;;;44.22;15.02;;;;;;;;;;5115738;28;20205;-48
2021/04/30 12:47:06;;;;;;;61.70;17.30;;;;;;;;;;5111614;28;20286;-47
2021/04/30 12:49:36;;;;;;;59.72;16.58;;;;;;;;;;5115506;28;20216;-47
2021/04/30 12:52:05;;;;;;;57.15;17.00;;;;;;;;;;5111384;28;20562;-48
2021/04/30 12:54:31;;;;;;;63.72;17.10;;;;;;;;;;5107141;28;20170;-47
2021/04/30 12:56:57;;;;;;;62.20;18.88;;;;;;;;;;5109748;28;20192;-47
2021/04/30 12:59:25;;;;;;;62.50;19.00;;;;;;;;;;5115162;28;20177;-47
2021/04/30 13:01:53;;;;;;;65.65;18.30;;;;;;;;;;5114871;28;20179;-47
2021/04/30 13:04:23;;;;;;;60.63;17.95;;;;;;;;;;5103915;28;20186;-47
2021/04/30 13:06:50;;;;;;;56.45;18.45;;;;;;;;;;5107632;28;20192;-47
2021/04/30 13:09:16;;;;;;;58.13;18.95;;;;;;;;;;5115125;28;20429;-47
2021/04/30 13:11:43;;;;;;;56.22;18.25;;;;;;;;;;5113693;28;20169;-47
2021/04/30 13:14:10;;;;;;;56.15;18.02;;;;;;;;;;5107800;28;20191;-47
2021/04/30 13:16:39;;;;;;;57.80;18.45;;;;;;;;;;5114878;28;20181;-47
2021/04/30 13:19:09;;;;;;;59.33;17.73;;;;;;;;;;5114455;28;20165;-47
2021/04/30 13:21:36;;;;;;;56.72;17.52;;;;;;;;;;5094634;28;20190;-47
2021/04/30 13:24:21;;;;;;;49.63;17.55;;;;;;;;;;5095092;28;20176;-47
2021/04/30 13:27:01;;;;;;;46.67;16.63;;;;;;;;;;5095171;28;20248;-47
2021/04/30 13:29:28;;;;;;;47.95;16.63;;;;;;;;;;5110007;28;20201;-47
2021/04/30 13:32:01;;;;;;;44.92;16.05;;;;;;;;;;5114236;28;20181;-47
2021/04/30 13:34:34;;;;;;;48.60;17.05;;;;;;;;;;5115285;28;20183;-47
2021/04/30 13:37:05;;;;;;;43.85;16.00;;;;;;;;;;5109265;28;20555;-47
2021/04/30 13:39:34;;;;;;;44.80;15.88;;;;;;;;;;5113272;28;20231;-47
2021/04/30 13:42:00;;;;;;;44.55;15.23;;;;;;;;;;5114050;28;20233;-47
2021/04/30 13:44:26;;;;;;;40.25;14.30;;;;;;;;;;5114990;28;20173;-47
2021/04/30 13:46:52;;;;;;;40.83;15.23;;;;;;;;;;5114792;28;20201;-47
2021/04/30 13:49:19;;;;;;;36.80;14.50;;;;;;;;;;5114885;28;20235;-47
2021/04/30 13:51:45;;;;;;;36.22;14.00;;;;;;;;;;5112459;28;20184;-47
2021/04/30 13:54:11;;;;;;;34.45;13.60;;;;;;;;;;5111397;28;20548;-47
2021/04/30 13:56:37;;;;;;;40.88;14.30;;;;;;;;;;5096305;28;20180;-48
2021/04/30 13:59:04;;;;;;;40.10;14.38;;;;;;;;;;5105289;28;20657;-47
2021/04/30 14:01:31;;;;;;;34.67;13.38;;;;;;;;;;5103993;28;20173;-48
2021/04/30 14:03:57;;;;;;;37.58;13.13;;;;;;;;;;5114803;28;20233;-47
2021/04/30 14:06:23;;;;;;;34.00;12.05;;;;;;;;;;5114727;28;20771;-47
2021/04/30 14:08:49;;;;;;;32.83;13.13;;;;;;;;;;5105083;28;20312;-47
2021/04/30 14:11:15;;;;;;;34.78;13.27;;;;;;;;;;5105698;28;20263;-47
2021/04/30 14:13:42;;;;;;;27.83;11.52;;;;;;;;;;5114449;28;20237;-47
2021/04/30 14:16:08;;;;;;;27.13;11.55;;;;;;;;;;5114666;28;20176;-47
2021/04/30 14:18:34;;;;;;;29.42;11.52;;;;;;;;;;5114594;28;20173;-47
2021/04/30 14:21:00;;;;;;;27.13;10.80;;;;;;;;;;5094069;28;20734;-47
2021/04/30 14:23:26;;;;;;;22.25;10.05;;;;;;;;;;5096057;28;20173;-47
2021/04/30 14:25:52;;;;;;;25.42;11.18;;;;;;;;;;5113541;28;20177;-47
2021/04/30 14:28:18;;;;;;;28.52;11.10;;;;;;;;;;5116181;28;20205;-47
2021/04/30 14:30:45;;;;;;;25.52;10.88;;;;;;;;;;5118040;28;20197;-47
2021/04/30 14:33:11;;;;;;;20.05;9.25;;;;;;;;;;5118052;28;20184;-47
2021/04/30 14:35:37;;;;;;;19.58;9.70;;;;;;;;;;5118853;28;20168;-47
2021/04/30 14:38:03;;;;;;;22.15;9.52;;;;;;;;;;5118971;28;20188;-47
2021/04/30 14:40:29;;;;;;;21.13;10.15;;;;;;;;;;5115716;28;20188;-47